Benchland, Montana
Current Conditions -  °F | °C
As of 3:54 PM on Tuesday 27 Jan 2015 (Local Time) from KLWT Reporting Station
Clear Clear  
Wind Chill: 54°   Ceiling: Unl
Heat Index: 54°   Visibility: 10mi
Dew Point: 32°   Wind: 3mph
Humidity: 43%   Direction: 260°W
Pressure: 29.86"   Gusts: NA
Location:  47.1096°N, 109.884°W
Report Text: KLWT 272254Z AUTO 26003KT 10SM CLR 12/00 A2986 RMK AO2 SLP100 T01220000
Loading
Personal Weather Stations






























Interactive Weather Map New forecast layout! Learn more

10-Day Weather Forecast

Advertisements
Track Severe Weather on mobile